Time;durP1;ratioP1;P1;durP2;ratioP2;P2;SDS_P1;SDS_P2;PMS_P1;PMS_P2;Temp;Humidity;BMP_temperature;BMP_pressure;BME280_temperature;BME280_humidity;BME280_pressure;Samples;Min_cycle;Max_cycle;Signal;HPM_P1;HPM_P2
2021/12/25 00:01:41;;;;;;;10.38;4.28;;;-7.60;99.90;;;;;;4990664;28;20455;-80
2021/12/25 00:04:09;;;;;;;9.90;3.63;;;-7.60;99.90;;;;;;4990114;28;20149;-80
2021/12/25 00:06:38;;;;;;;6.38;3.20;;;-7.50;99.90;;;;;;4991056;28;20054;-80
2021/12/25 00:09:07;;;;;;;7.45;3.25;;;-7.50;99.90;;;;;;4985960;28;20050;-80
2021/12/25 00:11:34;;;;;;;7.57;3.15;;;-7.40;99.90;;;;;;4989924;28;20046;-80
2021/12/25 00:14:09;;;;;;;8.38;3.40;;;-7.30;99.90;;;;;;4991436;28;20058;-80
2021/12/25 00:16:38;;;;;;;9.70;4.45;;;-7.20;99.90;;;;;;4988960;28;20054;-80
2021/12/25 00:19:06;;;;;;;8.98;3.67;;;-7.10;99.90;;;;;;4969153;28;20050;-81
2021/12/25 00:21:36;;;;;;;5.53;3.00;;;-7.10;99.90;;;;;;4991027;28;20105;-80
2021/12/25 00:24:06;;;;;;;13.55;6.25;;;-7.00;99.90;;;;;;4991636;28;20061;-79
2021/12/25 00:26:48;;;;;;;10.63;4.45;;;-6.90;99.90;;;;;;4978746;28;20050;-80
2021/12/25 00:32:30;;;;;;;17.15;6.93;;;-6.80;99.90;;;;;;4986787;28;20081;-80
2021/12/25 00:34:57;;;;;;;16.95;6.60;;;-6.70;99.90;;;;;;4984310;28;20418;-79
2021/12/25 00:37:26;;;;;;;16.70;6.85;;;-6.70;99.90;;;;;;4990700;28;20073;-79
2021/12/25 00:39:56;;;;;;;17.40;7.50;;;-6.70;99.90;;;;;;4989456;28;20066;-79
2021/12/25 00:42:23;;;;;;;24.38;8.52;;;-6.70;99.90;;;;;;4975074;28;20057;-79
2021/12/25 00:44:51;;;;;;;20.23;8.82;;;-6.70;99.90;;;;;;5004696;28;20050;-79
2021/12/25 00:47:18;;;;;;;23.73;9.32;;;-6.60;99.90;;;;;;4989907;28;20046;-80
2021/12/25 00:49:46;;;;;;;25.80;7.95;;;-6.60;99.90;;;;;;4989700;28;20056;-80
2021/12/25 00:52:14;;;;;;;16.73;7.78;;;-6.50;99.90;;;;;;4991551;28;20042;-80
2021/12/25 00:54:41;;;;;;;13.82;6.88;;;-6.50;99.90;;;;;;4989562;28;20054;-79
2021/12/25 00:57:10;;;;;;;19.83;6.85;;;-6.50;99.90;;;;;;4993808;28;20058;-80
2021/12/25 00:59:38;;;;;;;13.90;6.97;;;-6.50;99.90;;;;;;4995042;28;20145;-80
2021/12/25 01:02:07;;;;;;;14.48;7.18;;;-6.50;99.90;;;;;;4992422;28;20082;-81
2021/12/25 01:04:36;;;;;;;26.75;9.10;;;-6.50;99.90;;;;;;4993942;28;20054;-80
2021/12/25 01:07:04;;;;;;;22.60;10.50;;;-6.50;99.90;;;;;;5003706;28;20142;-80
2021/12/25 01:09:32;;;;;;;17.90;8.50;;;-6.60;99.90;;;;;;4968314;28;20051;-79
2021/12/25 01:12:03;;;;;;;19.65;8.05;;;-6.60;99.90;;;;;;4974254;28;20541;-79
2021/12/25 01:14:37;;;;;;;21.65;9.43;;;-6.70;99.90;;;;;;4977078;28;20054;-79
2021/12/25 01:17:30;;;;;;;16.58;8.18;;;-6.80;99.90;;;;;;4983570;28;20050;-80
2021/12/25 01:20:35;;;;;;;22.55;8.88;;;-6.80;99.90;;;;;;4976444;28;20074;-79
2021/12/25 01:26:14;;;;;;;19.00;8.95;;;-6.90;99.90;;;;;;4995816;28;20507;-80
2021/12/25 01:31:35;;;;;;;15.82;7.90;;;-7.10;99.90;;;;;;4961375;28;20081;-79
2021/12/25 01:37:35;;;;;;;16.08;6.65;;;-7.20;99.90;;;;;;4929114;29;20501;-80
2021/12/25 01:40:43;;;;;;;16.05;7.68;;;-7.30;99.90;;;;;;4914720;29;20168;-79
2021/12/25 01:49:06;;;;;;;13.73;5.78;;;-7.50;99.90;;;;;;4989573;28;20050;-79
2021/12/25 01:51:34;;;;;;;11.80;6.60;;;-7.50;99.90;;;;;;4983233;28;20507;-79
2021/12/25 01:54:02;;;;;;;14.48;6.22;;;-7.60;99.90;;;;;;4988562;28;20047;-80
2021/12/25 01:56:30;;;;;;;13.27;5.57;;;-7.70;99.90;;;;;;4987087;28;20052;-79
2021/12/25 01:58:58;;;;;;;10.05;4.88;;;-7.70;99.90;;;;;;4969615;28;20431;-79
2021/12/25 02:01:26;;;;;;;11.45;4.65;;;-7.80;99.90;;;;;;5008542;28;20054;-80
2021/12/25 02:03:53;;;;;;;9.32;4.65;;;-7.90;99.90;;;;;;4994156;28;20056;-79
2021/12/25 02:06:22;;;;;;;10.65;4.70;;;-7.90;99.90;;;;;;5005731;28;20518;-80
2021/12/25 02:08:49;;;;;;;10.88;4.90;;;-7.80;99.90;;;;;;4992398;28;20431;-81
2021/12/25 02:11:17;;;;;;;7.65;4.55;;;-7.80;99.90;;;;;;4973878;28;20566;-79
2021/12/25 02:13:46;;;;;;;8.40;4.18;;;-7.90;99.90;;;;;;5007760;28;20042;-80
2021/12/25 02:16:22;;;;;;;8.63;4.20;;;-7.90;99.90;;;;;;5008072;28;20146;-83
2021/12/25 02:19:01;;;;;;;7.50;4.13;;;-7.90;99.90;;;;;;5004413;28;20449;-79
2021/12/25 02:21:38;;;;;;;5.15;3.58;;;-8.00;99.90;;;;;;4991792;28;20066;-80
2021/12/25 02:24:07;;;;;;;10.90;4.70;;;-8.00;99.90;;;;;;4989768;28;20050;-79
2021/12/25 02:26:37;;;;;;;7.45;3.88;;;-8.10;99.90;;;;;;4988227;28;20050;-79
2021/12/25 02:29:05;;;;;;;9.13;5.38;;;-8.10;99.90;;;;;;5008216;28;20049;-80
2021/12/25 02:31:33;;;;;;;7.15;4.00;;;-8.20;99.90;;;;;;4975588;28;20046;-79
2021/12/25 02:34:01;;;;;;;8.13;4.07;;;-8.20;99.90;;;;;;4992666;28;20081;-80
2021/12/25 02:36:29;;;;;;;8.52;4.03;;;-8.20;99.90;;;;;;4991807;28;20073;-80
2021/12/25 02:38:58;;;;;;;5.68;3.63;;;-8.20;99.90;;;;;;4991989;28;20137;-80
2021/12/25 02:41:26;;;;;;;8.68;4.57;;;-8.20;99.90;;;;;;4973906;28;20069;-80
2021/12/25 02:43:54;;;;;;;7.75;4.00;;;-8.20;99.90;;;;;;4983053;28;20074;-80
2021/12/25 02:46:32;;;;;;;7.20;3.83;;;-8.20;99.90;;;;;;4984977;28;20523;-80
2021/12/25 02:49:00;;;;;;;5.03;3.50;;;-8.20;99.90;;;;;;4991097;28;20312;-80
2021/12/25 02:51:28;;;;;;;5.88;3.30;;;-8.20;99.90;;;;;;4991052;28;20050;-78
2021/12/25 02:53:57;;;;;;;5.93;2.17;;;-8.20;99.90;;;;;;4993327;28;20054;-79
2021/12/25 02:56:24;;;;;;;4.25;2.38;;;-8.30;99.90;;;;;;4973893;28;20045;-79
2021/12/25 02:58:52;;;;;;;5.78;2.58;;;-8.30;99.90;;;;;;5006835;28;20046;-79
2021/12/25 03:01:21;;;;;;;5.60;2.58;;;-8.30;99.90;;;;;;4990327;28;20133;-78
2021/12/25 03:03:49;;;;;;;6.32;2.50;;;-8.30;99.90;;;;;;4986734;28;20112;-79
2021/12/25 03:06:16;;;;;;;4.70;2.53;;;-8.30;99.90;;;;;;4991429;28;20097;-80
2021/12/25 03:08:45;;;;;;;6.75;2.10;;;-8.30;99.90;;;;;;5003842;28;20055;-79
2021/12/25 03:11:14;;;;;;;4.10;2.97;;;-8.20;99.90;;;;;;4971838;28;20050;-79
2021/12/25 03:13:46;;;;;;;4.70;2.13;;;-8.20;99.90;;;;;;4987881;28;20479;-79
2021/12/25 03:16:17;;;;;;;4.00;2.60;;;-8.20;99.90;;;;;;4990547;28;20054;-80
2021/12/25 03:18:48;;;;;;;5.00;2.50;;;-8.20;99.90;;;;;;4990839;28;20061;-80
2021/12/25 03:21:19;;;;;;;4.07;2.40;;;-8.30;99.90;;;;;;4991562;28;20062;-80
2021/12/25 03:23:48;;;;;;;4.13;2.50;;;-8.40;99.90;;;;;;4991989;28;20149;-80
2021/12/25 03:26:17;;;;;;;3.85;1.90;;;-8.40;99.90;;;;;;4993199;28;20046;-79
2021/12/25 03:28:46;;;;;;;3.72;2.80;;;-8.50;99.90;;;;;;4979941;28;20062;-80
2021/12/25 03:31:20;;;;;;;5.22;2.42;;;-8.50;99.90;;;;;;4992814;28;20096;-80
2021/12/25 03:33:53;;;;;;;4.57;2.30;;;-8.50;99.90;;;;;;4991378;28;20411;-80
2021/12/25 03:36:21;;;;;;;4.43;2.90;;;-8.50;99.90;;;;;;4990113;28;20423;-80
2021/12/25 03:38:50;;;;;;;4.43;2.25;;;-8.50;99.90;;;;;;4991781;28;20046;-80
2021/12/25 03:41:19;;;;;;;4.35;2.50;;;-8.60;99.90;;;;;;4990694;28;20058;-77
2021/12/25 03:43:48;;;;;;;2.97;1.55;;;-8.60;99.90;;;;;;4992157;28;20053;-78
2021/12/25 03:46:18;;;;;;;3.92;1.88;;;-8.70;99.90;;;;;;4989889;28;20056;-78
2021/12/25 03:49:07;;;;;;;2.28;2.08;;;-8.70;99.90;;;;;;4990676;28;20052;-77
2021/12/25 03:59:59;;;;;;;6.50;2.08;;;-9.00;99.90;;;;;;4979968;28;20050;-78
2021/12/25 04:02:33;;;;;;;3.58;1.80;;;-9.10;99.90;;;;;;4992021;28;20050;-78
2021/12/25 04:05:02;;;;;;;6.68;2.63;;;-9.20;99.90;;;;;;5006361;28;20065;-78
2021/12/25 04:07:56;;;;;;;3.67;1.90;;;-9.30;99.90;;;;;;4989500;28;20043;-78
2021/12/25 04:10:24;;;;;;;5.28;1.88;;;-9.50;99.90;;;;;;4991379;28;20054;-78
2021/12/25 04:12:53;;;;;;;2.88;1.65;;;-9.60;99.90;;;;;;4980358;28;20086;-78
2021/12/25 04:15:21;;;;;;;3.42;1.80;;;-9.70;99.90;;;;;;4984376;28;20046;-78
2021/12/25 04:17:48;;;;;;;2.45;1.65;;;-9.80;99.90;;;;;;5006938;28;20054;-80
2021/12/25 04:20:18;;;;;;;3.60;1.40;;;-9.90;99.90;;;;;;4987111;28;20061;-77
2021/12/25 04:22:50;;;;;;;3.20;2.13;;;-10.00;99.90;;;;;;4989423;28;20053;-78
2021/12/25 04:25:23;;;;;;;4.03;2.30;;;-10.10;99.90;;;;;;4990484;28;20053;-78
2021/12/25 04:27:50;;;;;;;;;;;-10.20;99.90;;;;;;4992341;28;20050;-77
2021/12/25 04:30:29;;;;;;;3.25;2.67;;;-10.30;99.90;;;;;;4968519;28;20465;-76
2021/12/25 04:33:28;;;;;;;4.22;2.00;;;-10.40;99.90;;;;;;4972311;28;20057;-76
2021/12/25 05:04:04;;;;;;;3.22;1.50;;;-11.00;99.90;;;;;;4988504;28;20061;-76
2021/12/25 05:06:36;;;;;;;2.58;1.27;;;-11.10;99.90;;;;;;4984295;28;20450;-76
2021/12/25 05:09:04;;;;;;;1.73;1.00;;;-11.20;99.90;;;;;;4985790;28;20064;-76
2021/12/25 05:11:31;;;;;;;1.50;0.90;;;-11.20;99.90;;;;;;4973848;28;20051;-76
2021/12/25 05:14:00;;;;;;;3.25;1.02;;;-11.30;99.90;;;;;;4989494;28;20438;-77
2021/12/25 05:16:38;;;;;;;3.28;1.20;;;-11.40;99.90;;;;;;4984555;28;20054;-76
2021/12/25 05:19:08;;;;;;;3.65;0.88;;;-11.50;99.90;;;;;;4969045;28;20142;-77
2021/12/25 05:21:36;;;;;;;6.05;1.77;;;-11.60;99.90;;;;;;4990046;28;20058;-79
2021/12/25 05:24:08;;;;;;;4.57;2.42;;;-11.70;99.90;;;;;;4989567;28;20050;-76
2021/12/25 05:26:42;;;;;;;12.63;3.85;;;-11.80;99.90;;;;;;4969471;28;20432;-77
2021/12/25 05:29:10;;;;;;;6.25;2.13;;;-11.90;99.90;;;;;;4957029;28;20054;-78
2021/12/25 05:31:39;;;;;;;4.88;1.65;;;-12.00;99.90;;;;;;4996100;28;20124;-77
2021/12/25 05:34:23;;;;;;;4.20;1.88;;;-12.10;99.90;;;;;;4981258;28;20043;-77
2021/12/25 05:37:10;;;;;;;3.25;1.25;;;-12.20;99.90;;;;;;4984705;28;20058;-77
2021/12/25 05:39:52;;;;;;;3.47;1.52;;;-12.40;99.90;;;;;;4991161;28;20141;-76
2021/12/25 05:42:25;;;;;;;2.00;1.45;;;-12.50;99.90;;;;;;4999646;28;20047;-77
2021/12/25 05:44:53;;;;;;;3.90;1.73;;;-12.60;99.90;;;;;;4981171;28;20046;-76
2021/12/25 05:47:27;;;;;;;3.40;1.60;;;-12.70;99.90;;;;;;4990028;28;20569;-78
2021/12/25 05:50:06;;;;;;;2.78;1.48;;;-12.70;99.90;;;;;;4992938;28;20073;-78
2021/12/25 05:52:55;;;;;;;4.03;1.63;;;-12.80;99.90;;;;;;4999556;28;20055;-77
2021/12/25 05:55:42;;;;;;;6.05;1.88;;;-12.80;99.90;;;;;;4990536;28;20402;-76
2021/12/25 05:58:39;;;;;;;5.78;1.90;;;-12.90;99.90;;;;;;4998585;28;20054;-79
2021/12/25 06:01:28;;;;;;;3.17;1.30;;;-12.90;99.90;;;;;;4989944;28;20062;-79
2021/12/25 06:03:56;;;;;;;3.25;1.00;;;-12.90;99.90;;;;;;4994304;28;20062;-78
2021/12/25 06:06:25;;;;;;;4.00;1.20;;;-13.00;99.90;;;;;;4988279;28;20557;-80
2021/12/25 06:08:54;;;;;;;2.03;1.10;;;-13.10;99.90;;;;;;5009145;28;20100;-79
2021/12/25 06:11:24;;;;;;;2.40;1.60;;;-13.10;99.90;;;;;;4992462;28;20053;-80
2021/12/25 06:14:08;;;;;;;3.67;2.03;;;-13.10;99.90;;;;;;4992933;28;20055;-81
2021/12/25 06:16:47;;;;;;;2.78;1.50;;;-13.20;99.90;;;;;;5008281;28;20104;-79
2021/12/25 06:19:34;;;;;;;2.85;1.90;;;-13.10;99.90;;;;;;4990884;28;20478;-81
2021/12/25 06:22:26;;;;;;;6.13;2.30;;;-13.20;99.90;;;;;;4986222;28;20058;-80
2021/12/25 06:25:05;;;;;;;2.30;2.05;;;-13.20;99.90;;;;;;4972461;28;20046;-79
2021/12/25 06:27:47;;;;;;;5.63;2.08;;;-13.20;99.90;;;;;;4984032;28;20043;-80
2021/12/25 06:30:34;;;;;;;2.75;1.23;;;-13.20;99.90;;;;;;4990415;28;20046;-80
2021/12/25 06:33:23;;;;;;;4.53;1.27;;;-13.30;99.90;;;;;;5006919;28;20061;-82
2021/12/25 06:36:12;;;;;;;3.28;1.30;;;-13.30;99.90;;;;;;4987774;28;20117;-80
2021/12/25 06:38:50;;;;;;;3.47;1.48;;;-13.30;99.90;;;;;;4985045;28;20337;-80
2021/12/25 06:41:26;;;;;;;3.75;1.25;;;-13.30;99.90;;;;;;4989104;28;20482;-79
2021/12/25 06:43:53;;;;;;;3.80;1.48;;;-13.30;99.90;;;;;;4990715;28;20411;-81
2021/12/25 06:46:38;;;;;;;5.07;1.67;;;-13.30;99.90;;;;;;4969421;28;20042;-81
2021/12/25 06:49:15;;;;;;;3.28;1.67;;;-13.30;99.90;;;;;;4991102;28;20109;-81
2021/12/25 06:52:07;;;;;;;5.10;1.42;;;-13.40;99.90;;;;;;4989394;28;20042;-79
2021/12/25 06:54:56;;;;;;;2.53;1.67;;;-13.40;99.90;;;;;;4984553;28;20062;-79
2021/12/25 06:57:43;;;;;;;4.22;2.08;;;-13.40;99.90;;;;;;4990427;28;20066;-79
2021/12/25 07:00:18;;;;;;;3.38;1.83;;;-13.40;99.90;;;;;;4990203;28;20146;-79
2021/12/25 07:02:58;;;;;;;4.10;1.90;;;-13.40;99.90;;;;;;4988942;28;20050;-79
2021/12/25 07:05:55;;;;;;;6.05;2.10;;;-13.40;99.90;;;;;;4965704;28;20059;-80
2021/12/25 07:08:35;;;;;;;3.92;1.70;;;-13.50;99.90;;;;;;5001661;28;20057;-79
2021/12/25 07:11:23;;;;;;;3.10;2.03;;;-13.50;99.90;;;;;;4989573;28;20042;-80
2021/12/25 07:14:11;;;;;;;10.88;2.42;;;-13.50;99.90;;;;;;4982946;28;20042;-80
2021/12/25 07:16:51;;;;;;;6.78;1.95;;;-13.50;99.90;;;;;;4988852;28;20515;-79
2021/12/25 07:19:37;;;;;;;4.55;1.60;;;-13.50;99.90;;;;;;4986865;28;20380;-80
2021/12/25 07:22:25;;;;;;;4.65;2.33;;;-13.50;99.90;;;;;;4986029;28;20054;-80
2021/12/25 07:24:52;;;;;;;2.75;1.73;;;-13.40;99.90;;;;;;4990343;28;20533;-80
2021/12/25 07:27:44;;;;;;;3.70;2.28;;;-13.40;99.90;;;;;;4973853;28;20058;-81
2021/12/25 07:30:14;;;;;;;4.43;2.25;;;-13.50;99.90;;;;;;4987369;28;20050;-80
2021/12/25 07:32:41;;;;;;;6.82;3.22;;;-13.50;99.90;;;;;;5006176;28;20511;-80
2021/12/25 07:35:15;;;;;;;4.60;2.00;;;-13.50;99.90;;;;;;4991464;28;20100;-79
2021/12/25 07:37:42;;;;;;;3.53;1.85;;;-13.50;99.90;;;;;;4968547;28;20039;-81
2021/12/25 07:40:11;;;;;;;5.32;2.47;;;-13.50;99.90;;;;;;4971935;28;20046;-81
2021/12/25 07:42:38;;;;;;;3.65;1.95;;;-13.50;99.90;;;;;;4988300;28;20038;-83
2021/12/25 07:45:12;;;;;;;5.43;2.60;;;-13.50;99.90;;;;;;4986641;28;20057;-82
2021/12/25 07:47:47;;;;;;;4.97;2.90;;;-13.50;99.90;;;;;;4988945;28;20054;-81
2021/12/25 07:50:15;;;;;;;8.15;4.07;;;-13.60;99.90;;;;;;4986915;28;20050;-81
2021/12/25 07:52:43;;;;;;;4.30;1.83;;;-13.60;99.90;;;;;;4988818;28;20045;-79
2021/12/25 07:55:15;;;;;;;7.57;3.20;;;-13.60;99.90;;;;;;4985155;28;20057;-84
2021/12/25 07:57:43;;;;;;;;;;;-13.60;99.90;;;;;;4988636;28;20043;-79
2021/12/25 08:00:14;;;;;;;15.48;2.13;;;-13.60;99.90;;;;;;4990095;28;19972;-81
2021/12/25 08:02:46;;;;;;;11.98;2.97;;;-13.50;99.90;;;;;;4993262;28;20527;-82
2021/12/25 08:05:14;;;;;;;5.22;1.95;;;-13.50;99.90;;;;;;4990365;28;20056;-86
2021/12/25 08:07:43;;;;;;;4.35;2.10;;;-13.40;99.90;;;;;;4986932;28;20046;-83
2021/12/25 08:10:14;;;;;;;4.45;2.40;;;-13.40;99.90;;;;;;4999572;28;20125;-80
2021/12/25 08:12:49;;;;;;;4.90;3.03;;;-13.40;99.90;;;;;;5001801;28;20526;-81
2021/12/25 08:15:25;;;;;;;6.28;3.00;;;-13.30;99.90;;;;;;4933748;28;20141;-83
2021/12/25 08:17:53;;;;;;;8.07;3.38;;;-13.30;99.90;;;;;;4989379;28;20050;-80
2021/12/25 08:20:38;;;;;;;6.72;2.83;;;-13.20;99.90;;;;;;4988310;28;20050;-79
2021/12/25 08:23:25;;;;;;;4.28;2.65;;;-13.10;99.90;;;;;;4985941;28;20546;-85
2021/12/25 08:26:24;;;;;;;7.90;2.50;;;-13.10;99.90;;;;;;4974666;28;20046;-86
2021/12/25 08:29:30;;;;;;;12.10;4.07;;;-13.10;99.90;;;;;;4943291;29;20524;-84
2021/12/25 08:32:18;;;;;;;12.35;4.15;;;-13.10;99.90;;;;;;4945016;28;20058;-81
2021/12/25 08:35:05;;;;;;;7.55;4.22;;;-13.10;99.90;;;;;;4973886;28;20046;-83
2021/12/25 08:37:41;;;;;;;9.18;3.42;;;-13.00;99.90;;;;;;4984915;28;20051;-82
2021/12/25 08:40:18;;;;;;;14.48;4.18;;;-13.00;99.90;;;;;;5002045;28;20451;-85
2021/12/25 08:42:52;;;;;;;8.40;4.25;;;-13.10;99.90;;;;;;4979819;28;20061;-80
2021/12/25 08:45:40;;;;;;;5.65;3.20;;;-13.20;99.90;;;;;;4985475;28;20054;-79
2021/12/25 08:48:14;;;;;;;7.93;2.65;;;-13.10;99.90;;;;;;4986769;28;20585;-78
2021/12/25 08:50:46;;;;;;;9.70;3.20;;;-13.00;99.90;;;;;;4987301;28;20042;-79
2021/12/25 08:53:14;;;;;;;9.10;2.95;;;-12.90;99.90;;;;;;4987353;28;20081;-77
2021/12/25 08:55:42;;;;;;;5.68;2.85;;;-12.80;99.90;;;;;;4985667;28;20055;-78
2021/12/25 08:58:10;;;;;;;8.25;3.30;;;-12.70;99.90;;;;;;4989407;28;20062;-78
2021/12/25 09:00:38;;;;;;;6.68;2.50;;;-12.60;99.90;;;;;;4986037;28;20093;-80
2021/12/25 09:03:09;;;;;;;12.90;5.70;;;-12.60;99.90;;;;;;4978399;28;20055;-82
2021/12/25 09:05:37;;;;;;;8.13;3.45;;;-12.60;99.90;;;;;;4987359;28;20074;-81
2021/12/25 09:08:06;;;;;;;9.82;4.03;;;-12.70;99.90;;;;;;4975200;28;20042;-81
2021/12/25 09:10:35;;;;;;;8.30;3.25;;;-12.80;99.90;;;;;;4988435;28;20101;-81
2021/12/25 09:13:02;;;;;;;9.57;3.63;;;-12.70;99.90;;;;;;4986358;28;20057;-80
2021/12/25 09:15:35;;;;;;;10.05;3.78;;;-12.80;99.90;;;;;;5001632;28;20046;-81
2021/12/25 09:18:15;;;;;;;8.10;3.78;;;-12.80;99.90;;;;;;4990303;28;20483;-81
2021/12/25 09:20:42;;;;;;;8.35;4.15;;;-12.80;99.90;;;;;;4990793;28;20092;-83
2021/12/25 09:23:11;;;;;;;6.93;2.95;;;-12.90;99.90;;;;;;4992099;28;20132;-84
2021/12/25 09:25:46;;;;;;;10.88;4.05;;;-12.90;99.90;;;;;;4987852;28;20046;-83
2021/12/25 09:28:18;;;;;;;16.05;5.68;;;-12.90;99.90;;;;;;4991137;28;20057;-84
2021/12/25 09:30:49;;;;;;;14.88;3.67;;;-12.90;99.90;;;;;;4992783;28;20046;-86
2021/12/25 09:33:40;;;;;;;7.30;3.13;;;-12.90;99.90;;;;;;4989690;28;20435;-82
2021/12/25 09:36:26;;;;;;;7.40;2.75;;;-12.90;99.90;;;;;;4987845;28;20064;-84
2021/12/25 09:39:23;;;;;;;4.72;2.45;;;-12.80;99.90;;;;;;4990947;28;20142;-80
2021/12/25 09:44:50;;;;;;;7.80;3.15;;;-12.70;99.90;;;;;;4988451;28;20050;-83
2021/12/25 09:47:18;;;;;;;11.27;3.58;;;-12.70;99.90;;;;;;4991300;28;20054;-84
2021/12/25 09:49:47;;;;;;;9.68;3.92;;;-12.70;99.90;;;;;;4991733;28;20085;-84
2021/12/25 09:52:20;;;;;;;6.88;3.13;;;-12.60;99.90;;;;;;4993855;28;20340;-86
2021/12/25 09:55:32;;;;;;;9.85;3.90;;;-12.60;99.90;;;;;;4984341;28;20050;-88
2021/12/25 09:58:09;;;;;;;12.23;3.75;;;-12.60;99.90;;;;;;4988540;28;20046;-85
2021/12/25 10:00:44;;;;;;;10.38;4.22;;;-12.50;99.90;;;;;;4990986;28;20066;-83
2021/12/25 10:03:11;;;;;;;10.57;3.75;;;-12.50;99.90;;;;;;4989792;28;20058;-81
2021/12/25 10:05:44;;;;;;;9.02;3.85;;;-12.40;99.90;;;;;;4990200;28;20053;-82
2021/12/25 10:08:14;;;;;;;10.57;4.82;;;-12.30;99.90;;;;;;4988952;28;20039;-82
2021/12/25 10:10:45;;;;;;;8.27;4.10;;;-12.20;99.90;;;;;;4991787;28;20054;-82
2021/12/25 10:13:26;;;;;;;9.73;3.75;;;-12.10;99.90;;;;;;4980748;28;20054;-82
2021/12/25 10:15:58;;;;;;;11.02;5.00;;;-11.90;99.90;;;;;;4986899;28;20508;-80
2021/12/25 10:18:31;;;;;;;7.60;4.45;;;-11.80;99.90;;;;;;4970756;28;20408;-80
2021/12/25 10:21:22;;;;;;;12.85;4.90;;;-11.70;99.90;;;;;;4987592;28;20047;-79
2021/12/25 10:24:17;;;;;;;13.40;5.30;;;-11.60;99.90;;;;;;4984002;28;20057;-79
2021/12/25 10:26:54;;;;;;;12.63;5.35;;;-11.60;99.90;;;;;;4980028;28;20057;-80
2021/12/25 10:29:26;;;;;;;7.90;4.38;;;-11.50;99.90;;;;;;4982814;28;20102;-80
2021/12/25 10:32:02;;;;;;;6.00;3.53;;;-11.40;99.90;;;;;;5000478;28;20462;-82
2021/12/25 10:34:32;;;;;;;13.85;4.63;;;-11.30;99.90;;;;;;4991501;28;20110;-82
2021/12/25 10:37:12;;;;;;;9.95;4.65;;;-11.30;99.90;;;;;;4996645;28;20051;-82
2021/12/25 10:39:46;;;;;;;10.38;4.22;;;-11.20;99.90;;;;;;4992173;28;20054;-82
2021/12/25 10:42:19;;;;;;;12.98;3.88;;;-11.10;99.90;;;;;;4987958;28;20061;-83
2021/12/25 10:44:51;;;;;;;;;;;-11.10;99.90;;;;;;4987564;28;20054;-82
2021/12/25 10:47:22;;;;;;;8.20;4.05;;;-11.00;99.90;;;;;;4992042;28;19926;-85
2021/12/25 10:49:58;;;;;;;9.75;3.78;;;-10.80;99.90;;;;;;5005494;28;20042;-85
2021/12/25 10:52:39;;;;;;;7.32;3.88;;;-10.60;99.90;;;;;;4986162;28;20046;-87
2021/12/25 10:55:18;;;;;;;6.63;3.95;;;-10.40;99.90;;;;;;4987759;28;20150;-85
2021/12/25 10:57:49;;;;;;;8.77;4.15;;;-10.30;99.90;;;;;;4978854;28;20155;-86
2021/12/25 11:00:29;;;;;;;11.38;4.32;;;-10.20;99.90;;;;;;4991177;28;20061;-80
2021/12/25 11:03:03;;;;;;;11.18;5.20;;;-10.20;99.90;;;;;;4988027;28;20524;-79
2021/12/25 11:05:33;;;;;;;10.07;3.92;;;-10.20;99.90;;;;;;4988166;28;20042;-78
2021/12/25 11:08:09;;;;;;;16.92;6.07;;;-10.20;99.90;;;;;;4991105;28;20077;-80
2021/12/25 11:10:46;;;;;;;8.88;3.78;;;-10.20;99.90;;;;;;4972957;28;20050;-82
2021/12/25 11:13:23;;;;;;;10.27;4.43;;;-10.20;99.90;;;;;;4988305;28;20050;-79
2021/12/25 11:15:56;;;;;;;12.02;4.70;;;-10.20;99.90;;;;;;4990106;28;20042;-80
2021/12/25 11:18:24;;;;;;;9.98;4.07;;;-10.20;99.90;;;;;;4992475;28;20100;-80
2021/12/25 11:20:54;;;;;;;10.23;4.32;;;-10.30;99.90;;;;;;4990943;28;20082;-77
2021/12/25 11:23:25;;;;;;;12.43;5.10;;;-10.40;99.90;;;;;;4990399;28;20054;-76
2021/12/25 11:25:53;;;;;;;10.45;4.68;;;-10.50;99.90;;;;;;4989241;28;20050;-80
2021/12/25 11:28:20;;;;;;;13.48;4.72;;;-10.50;99.90;;;;;;4991841;28;20097;-80
2021/12/25 11:30:52;;;;;;;11.07;4.22;;;-10.60;99.90;;;;;;4990594;28;20049;-78
2021/12/25 11:33:21;;;;;;;9.73;4.63;;;-10.50;99.90;;;;;;4985338;28;20050;-78
2021/12/25 11:35:49;;;;;;;10.88;4.32;;;-10.50;99.90;;;;;;4991364;28;20050;-79
2021/12/25 11:38:16;;;;;;;7.68;3.75;;;-10.50;99.90;;;;;;4990858;28;20086;-79
2021/12/25 11:40:52;;;;;;;8.13;4.38;;;-10.60;99.90;;;;;;4991329;28;20058;-80
2021/12/25 11:43:39;;;;;;;11.27;4.57;;;-10.60;99.90;;;;;;4987346;28;20073;-76
2021/12/25 11:46:08;;;;;;;11.40;5.03;;;-10.70;99.90;;;;;;4990141;28;20442;-76
2021/12/25 11:48:38;;;;;;;13.25;4.07;;;-10.70;99.90;;;;;;4989526;28;20100;-77
2021/12/25 11:51:27;;;;;;;7.50;4.15;;;-10.70;99.90;;;;;;4989580;28;20054;-82
2021/12/25 11:54:09;;;;;;;20.10;7.38;;;-10.80;99.90;;;;;;4991111;28;20054;-81
2021/12/25 11:57:04;;;;;;;14.60;4.68;;;-10.90;99.90;;;;;;4989515;28;20061;-80
2021/12/25 11:59:45;;;;;;;9.68;3.85;;;-10.90;99.90;;;;;;4988086;28;20450;-80
2021/12/25 12:02:13;;;;;;;9.52;4.40;;;-11.00;99.90;;;;;;4972416;28;20062;-79
2021/12/25 12:04:41;;;;;;;9.20;5.00;;;-11.00;99.90;;;;;;4985442;28;20144;-81
2021/12/25 12:07:13;;;;;;;8.90;4.15;;;-11.00;99.90;;;;;;4984261;28;20495;-82
2021/12/25 12:10:03;;;;;;;9.02;3.72;;;-11.00;99.90;;;;;;4982915;28;20043;-80
2021/12/25 12:12:48;;;;;;;7.38;3.83;;;-11.00;99.90;;;;;;4971191;28;20049;-84
2021/12/25 12:15:47;;;;;;;7.38;3.20;;;-10.90;99.90;;;;;;4976532;28;20105;-85
2021/12/25 12:18:44;;;;;;;7.60;3.45;;;-11.00;99.90;;;;;;4976271;28;20057;-78
2021/12/25 12:21:40;;;;;;;8.57;4.07;;;-11.00;99.90;;;;;;4985769;28;20125;-80
2021/12/25 12:24:44;;;;;;;9.52;4.13;;;-11.10;99.90;;;;;;4987039;28;20054;-81
2021/12/25 12:27:12;;;;;;;9.25;4.22;;;-11.10;99.90;;;;;;4981087;28;20511;-80
2021/12/25 12:29:54;;;;;;;7.35;3.67;;;-11.10;99.90;;;;;;4989612;28;20089;-79
2021/12/25 12:32:43;;;;;;;8.48;3.28;;;-11.10;99.90;;;;;;4989598;28;20109;-79
2021/12/25 12:35:31;;;;;;;7.80;3.53;;;-11.10;99.90;;;;;;4986517;28;20054;-79
2021/12/25 12:38:26;;;;;;;8.95;3.47;;;-11.20;99.90;;;;;;4984387;28;20050;-78
2021/12/25 12:41:21;;;;;;;7.07;3.55;;;-11.30;99.90;;;;;;4990371;28;20521;-78
2021/12/25 12:44:02;;;;;;;10.55;4.20;;;-11.30;99.90;;;;;;4990494;28;20458;-80
2021/12/25 12:47:05;;;;;;;10.63;4.22;;;-11.30;99.90;;;;;;4997046;28;20058;-81
2021/12/25 12:49:58;;;;;;;13.88;4.53;;;-11.40;99.90;;;;;;4992218;28;20058;-79
2021/12/25 12:52:34;;;;;;;9.27;3.92;;;-11.40;99.90;;;;;;4994796;28;20058;-79
2021/12/25 12:55:10;;;;;;;8.80;4.57;;;-11.40;99.90;;;;;;4992844;28;20046;-80
2021/12/25 12:57:41;;;;;;;13.15;3.95;;;-11.40;99.90;;;;;;4985767;28;20137;-78
2021/12/25 13:03:23;;;;;;;20.23;5.82;;;-11.30;99.90;;;;;;4990845;28;20065;-80
2021/12/25 13:06:03;;;;;;;27.98;10.93;;;-11.20;99.90;;;;;;4991783;28;20077;-77
2021/12/25 13:08:35;;;;;;;13.18;6.57;;;-11.10;99.90;;;;;;4992582;28;20057;-82
2021/12/25 13:11:13;;;;;;;10.60;5.82;;;-11.00;99.90;;;;;;4992264;28;20049;-79
2021/12/25 13:13:54;;;;;;;11.18;5.72;;;-11.00;99.90;;;;;;4992357;28;20046;-81
2021/12/25 13:16:39;;;;;;;12.05;5.57;;;-10.90;99.90;;;;;;4989765;28;20082;-79
2021/12/25 13:19:09;;;;;;;16.08;7.32;;;-11.00;99.90;;;;;;4993859;28;20046;-82
2021/12/25 13:21:40;;;;;;;16.83;6.25;;;-11.00;99.90;;;;;;4991632;28;20054;-81
2021/12/25 13:24:16;;;;;;;9.90;5.90;;;-10.90;99.90;;;;;;4992855;28;20046;-79
2021/12/25 13:26:57;;;;;;;16.17;6.45;;;-11.00;99.90;;;;;;5002686;28;20046;-81
2021/12/25 13:29:28;;;;;;;16.63;6.68;;;-11.00;99.90;;;;;;4992586;28;20410;-78
2021/12/25 13:32:03;;;;;;;17.27;7.72;;;-10.90;99.90;;;;;;4988863;28;20133;-80
2021/12/25 13:34:33;;;;;;;16.00;7.15;;;-11.00;99.90;;;;;;4991126;28;20076;-77
2021/12/25 13:37:06;;;;;;;21.58;6.90;;;-11.00;99.90;;;;;;4989860;28;20189;-78
2021/12/25 13:39:37;;;;;;;14.30;5.85;;;-11.00;99.90;;;;;;4988223;28;20038;-77
2021/12/25 13:42:10;;;;;;;16.60;7.88;;;-11.00;99.90;;;;;;4991472;28;20046;-76
2021/12/25 13:44:41;;;;;;;17.50;6.45;;;-11.00;99.90;;;;;;4991747;28;20374;-76
2021/12/25 13:47:24;;;;;;;18.83;7.00;;;-11.00;99.90;;;;;;4990503;28;20137;-78
2021/12/25 13:49:57;;;;;;;16.33;6.97;;;-11.00;99.90;;;;;;4986424;28;20046;-79
2021/12/25 13:52:34;;;;;;;16.95;6.60;;;-11.00;99.90;;;;;;4993153;28;20050;-79
2021/12/25 13:55:10;;;;;;;19.00;6.85;;;-11.00;99.90;;;;;;4991878;28;20050;-79
2021/12/25 13:57:46;;;;;;;16.05;7.28;;;-11.10;99.90;;;;;;4993112;28;20100;-75
2021/12/25 14:00:19;;;;;;;17.35;7.40;;;-11.10;99.90;;;;;;5006355;28;20046;-77
2021/12/25 14:02:51;;;;;;;19.92;7.53;;;-11.10;99.90;;;;;;4989339;28;20397;-76
2021/12/25 14:05:25;;;;;;;21.88;9.95;;;-11.10;99.90;;;;;;4992115;28;20050;-78
2021/12/25 14:07:53;;;;;;;18.08;8.02;;;-11.10;99.90;;;;;;4974428;28;20053;-79
2021/12/25 14:10:26;;;;;;;19.80;8.52;;;-11.10;99.90;;;;;;4992134;28;20466;-79
2021/12/25 14:12:58;;;;;;;21.65;8.40;;;-11.10;99.90;;;;;;4990914;28;20050;-78
2021/12/25 14:15:28;;;;;;;22.88;8.73;;;-11.10;99.90;;;;;;4988045;28;20105;-81
2021/12/25 14:17:57;;;;;;;24.40;9.93;;;-11.00;99.90;;;;;;4988871;28;20419;-75
2021/12/25 14:20:37;;;;;;;22.23;9.57;;;-11.00;99.90;;;;;;4991776;28;20411;-78